createdAt,value
2023-03-01T00:09:33.800Z,-1.38
2023-03-01T00:12:01.632Z,-1.31
2023-03-01T00:14:29.490Z,-1.39
2023-03-01T00:16:57.473Z,-1.48
2023-03-01T00:19:25.817Z,-1.58
2023-03-01T00:21:53.720Z,-1.68
2023-03-01T00:24:21.655Z,-1.74
2023-03-01T00:26:49.688Z,-1.79
2023-03-01T00:29:17.582Z,-1.83
2023-03-01T00:31:45.420Z,-1.87
2023-03-01T00:34:13.323Z,-1.90
2023-03-01T00:36:41.397Z,-1.94
2023-03-01T00:39:14.531Z,-1.95
2023-03-01T00:41:43.625Z,-1.93
2023-03-01T00:44:11.993Z,-1.95
2023-03-01T00:46:40.144Z,-1.98
2023-03-01T00:49:08.247Z,-2.01
2023-03-01T00:51:36.425Z,-2.04
2023-03-01T00:54:04.398Z,-2.06
2023-03-01T00:56:33.313Z,-2.09
2023-03-01T00:59:02.546Z,-2.13
2023-03-01T01:01:32.012Z,-2.17
2023-03-01T01:04:08.803Z,-2.19
2023-03-01T01:06:44.189Z,-2.22
2023-03-01T01:09:18.067Z,-2.24
2023-03-01T01:11:49.480Z,-2.26
2023-03-01T01:14:18.662Z,-2.30
2023-03-01T01:16:46.930Z,-2.34
2023-03-01T01:19:15.347Z,-2.39
2023-03-01T01:21:46.418Z,-2.44
2023-03-01T01:24:15.324Z,-2.47
2023-03-01T01:26:43.766Z,-2.48
2023-03-01T01:29:12.586Z,-2.50
2023-03-01T01:31:42.116Z,-2.51
2023-03-01T01:34:16.523Z,-2.52
2023-03-01T01:36:45.152Z,-2.56
2023-03-01T01:39:14.268Z,-2.58
2023-03-01T01:41:43.398Z,-2.60
2023-03-01T01:44:22.016Z,-2.61
2023-03-01T01:46:59.155Z,-2.62
2023-03-01T01:49:47.240Z,-2.64
2023-03-01T01:52:19.000Z,-2.66
2023-03-01T01:54:59.015Z,-2.68
2023-03-01T01:57:30.920Z,-2.70
2023-03-01T02:00:01.914Z,-2.71
2023-03-01T02:02:30.113Z,-2.72
2023-03-01T02:05:12.163Z,-2.73
2023-03-01T02:07:42.339Z,-2.73
2023-03-01T02:10:10.788Z,-2.75
2023-03-01T02:12:40.956Z,-2.78
2023-03-01T02:15:09.613Z,-2.79
2023-03-01T02:17:38.994Z,-2.81
2023-03-01T02:20:27.718Z,-2.81
2023-03-01T02:22:56.202Z,-2.83
2023-03-01T02:25:40.198Z,-2.85
2023-03-01T02:28:16.990Z,-2.87
2023-03-01T02:31:07.667Z,-2.88
2023-03-01T02:33:38.849Z,-2.88
2023-03-01T02:36:15.065Z,-2.89
2023-03-01T02:38:43.471Z,-2.93
2023-03-01T02:41:14.531Z,-2.94
2023-03-01T02:43:42.875Z,-2.94
2023-03-01T02:46:20.201Z,-2.94
2023-03-01T02:48:54.531Z,-2.99
2023-03-01T02:51:44.741Z,-3.01
2023-03-01T02:54:34.813Z,-3.04
2023-03-01T02:57:03.745Z,-3.06
2023-03-01T02:59:40.440Z,-3.05
2023-03-01T03:02:39.517Z,-3.04
2023-03-01T03:05:25.256Z,-3.04
2023-03-01T03:07:56.399Z,-3.07
2023-03-01T03:10:31.171Z,-3.10
2023-03-01T03:13:05.283Z,-3.10
2023-03-01T03:15:37.007Z,-3.12
2023-03-01T03:18:09.560Z,-3.14
2023-03-01T03:20:38.858Z,-3.15
2023-03-01T03:23:07.231Z,-3.14
2023-03-01T03:25:38.815Z,-3.12
2023-03-01T03:28:11.175Z,-3.08
2023-03-01T03:30:41.281Z,-3.08
2023-03-01T03:33:13.495Z,-3.09
2023-03-01T03:35:44.952Z,-3.11
2023-03-01T03:38:17.845Z,-3.13
2023-03-01T03:40:48.721Z,-3.16
2023-03-01T03:43:22.701Z,-3.22
2023-03-01T03:45:52.182Z,-3.22
2023-03-01T03:48:21.210Z,-3.22
2023-03-01T03:50:52.699Z,-3.22
2023-03-01T03:53:22.602Z,-3.24
2023-03-01T03:55:52.547Z,-3.26
2023-03-01T03:58:24.008Z,-3.28
2023-03-01T04:00:57.383Z,-3.30
2023-03-01T04:03:27.155Z,-3.31
2023-03-01T04:05:55.121Z,-3.32
2023-03-01T04:08:24.044Z,-3.31
2023-03-01T04:10:57.360Z,-3.31
2023-03-01T04:13:26.391Z,-3.30
2023-03-01T04:15:55.722Z,-3.29
2023-03-01T04:18:26.303Z,-3.29
2023-03-01T04:20:56.402Z,-3.30
2023-03-01T04:23:25.000Z,-3.31
2023-03-01T04:25:58.563Z,-3.30
2023-03-01T04:28:33.748Z,-3.32
2023-03-01T04:31:14.734Z,-3.33
2023-03-01T04:33:55.379Z,-3.32
2023-03-01T04:36:25.939Z,-3.32
2023-03-01T04:38:55.061Z,-3.32
2023-03-01T04:41:24.922Z,-3.32
2023-03-01T04:43:53.090Z,-3.32
2023-03-01T04:46:22.096Z,-3.32
2023-03-01T04:48:50.212Z,-3.32
2023-03-01T04:51:19.386Z,-3.31
2023-03-01T04:53:47.775Z,-3.29
2023-03-01T04:56:17.037Z,-3.28
2023-03-01T04:58:45.843Z,-3.28
2023-03-01T05:01:20.747Z,-3.28
2023-03-01T05:03:51.482Z,-3.29
2023-03-01T05:06:21.654Z,-3.30
2023-03-01T05:08:50.071Z,-3.29
2023-03-01T05:11:18.016Z,-3.30
2023-03-01T05:13:45.864Z,-3.30
2023-03-01T05:16:13.920Z,-3.30
2023-03-01T05:18:42.054Z,-3.30
2023-03-01T05:21:18.504Z,-3.30
2023-03-01T05:23:47.922Z,-3.30
2023-03-01T05:26:33.924Z,-3.28
2023-03-01T05:29:02.152Z,-3.28
2023-03-01T05:31:31.873Z,-3.27
2023-03-01T05:33:59.942Z,-3.26
2023-03-01T05:36:27.933Z,-3.25
2023-03-01T05:38:56.801Z,-3.26
2023-03-01T05:41:24.953Z,-3.25
2023-03-01T05:43:52.854Z,-3.24
2023-03-01T05:46:20.769Z,-3.22
2023-03-01T05:48:49.404Z,-3.20
2023-03-01T05:51:18.622Z,-3.19
2023-03-01T05:53:46.650Z,-3.16
2023-03-01T05:56:14.567Z,-3.14
2023-03-01T05:58:42.424Z,-3.11
2023-03-01T06:01:14.594Z,-3.08
2023-03-01T06:03:43.265Z,-3.03
2023-03-01T06:06:11.182Z,-2.98
2023-03-01T06:08:39.108Z,-2.91
2023-03-01T06:11:08.322Z,-2.83
2023-03-01T06:13:36.432Z,-2.73
2023-03-01T06:16:08.096Z,-2.62
2023-03-01T06:18:36.728Z,-2.48
2023-03-01T06:21:05.843Z,-2.35
2023-03-01T06:23:34.117Z,-2.23
2023-03-01T06:26:07.155Z,-2.12
2023-03-01T06:28:35.775Z,-2.00
2023-03-01T06:31:04.410Z,-1.90
2023-03-01T06:33:32.595Z,-1.77
2023-03-01T06:36:00.720Z,-1.60
2023-03-01T06:38:29.202Z,-1.45
2023-03-01T06:40:57.715Z,-1.30
2023-03-01T06:43:25.839Z,-1.15
2023-03-01T06:45:53.744Z,-1.01
2023-03-01T06:48:21.757Z,-0.86
2023-03-01T06:50:49.624Z,-0.70
2023-03-01T06:53:17.664Z,-0.54
2023-03-01T06:55:45.521Z,-0.37
2023-03-01T06:58:13.428Z,-0.22
2023-03-01T07:00:42.001Z,-0.07
2023-03-01T07:03:10.211Z,0.06
2023-03-01T07:05:38.838Z,0.19
2023-03-01T07:08:06.926Z,0.34
2023-03-01T07:10:34.805Z,0.46
2023-03-01T07:13:02.748Z,0.54
2023-03-01T07:15:30.704Z,0.64
2023-03-01T07:17:58.621Z,0.76
2023-03-01T07:20:26.803Z,0.87
2023-03-01T07:22:59.371Z,0.94
2023-03-01T07:25:27.366Z,0.99
2023-03-01T07:27:55.407Z,1.04
2023-03-01T07:30:27.033Z,1.09
2023-03-01T07:32:56.768Z,1.15
2023-03-01T07:35:27.223Z,1.23
2023-03-01T07:37:55.313Z,1.29
2023-03-01T07:40:23.244Z,1.35
2023-03-01T07:42:56.623Z,1.42
2023-03-01T07:45:27.592Z,1.51
2023-03-01T07:47:56.705Z,1.55
2023-03-01T07:50:24.874Z,1.55
2023-03-01T07:52:52.787Z,1.53
2023-03-01T07:55:21.262Z,1.55
2023-03-01T07:57:49.133Z,1.53
2023-03-01T08:00:17.627Z,1.59
2023-03-01T08:02:46.425Z,1.62
2023-03-01T08:05:14.685Z,1.66
2023-03-01T08:07:42.789Z,1.76
2023-03-01T08:10:11.778Z,1.92
2023-03-01T08:12:39.843Z,1.93
2023-03-01T08:15:08.735Z,1.94
2023-03-01T08:17:36.956Z,1.99
2023-03-01T08:20:07.907Z,2.12
2023-03-01T08:22:35.827Z,2.24
2023-03-01T08:25:04.471Z,2.33
2023-03-01T08:27:32.423Z,2.45
2023-03-01T08:30:00.337Z,2.60
2023-03-01T08:32:28.282Z,2.71
2023-03-01T08:34:56.376Z,2.83
2023-03-01T08:37:24.348Z,2.88
2023-03-01T08:39:52.332Z,2.91
2023-03-01T08:42:20.198Z,2.99
2023-03-01T08:44:48.138Z,3.09
2023-03-01T08:47:16.027Z,3.16
2023-03-01T08:49:43.856Z,3.19
2023-03-01T08:52:11.724Z,3.24
2023-03-01T08:54:39.601Z,3.34
2023-03-01T08:57:07.496Z,3.44
2023-03-01T08:59:38.377Z,3.55
2023-03-01T09:02:11.696Z,3.64
2023-03-01T09:04:40.128Z,3.73
2023-03-01T09:07:09.805Z,3.79
2023-03-01T09:09:38.805Z,3.83
2023-03-01T09:12:07.265Z,3.87
2023-03-01T09:14:35.316Z,3.93
2023-03-01T09:17:04.193Z,3.98
2023-03-01T09:19:32.179Z,3.96
2023-03-01T09:22:00.116Z,3.95
2023-03-01T09:24:28.033Z,4.02
2023-03-01T09:26:56.948Z,4.07
2023-03-01T09:29:25.330Z,4.15
2023-03-01T09:31:56.280Z,4.20
2023-03-01T09:34:24.887Z,4.19
2023-03-01T09:36:53.048Z,4.21
2023-03-01T09:39:21.782Z,4.22
2023-03-01T09:42:03.478Z,4.24
2023-03-01T09:44:32.337Z,4.28
2023-03-01T09:47:01.328Z,4.32
2023-03-01T09:49:31.716Z,4.37
2023-03-01T09:52:22.233Z,4.38
2023-03-01T09:54:55.702Z,4.38
2023-03-01T09:57:31.823Z,4.42
2023-03-01T10:00:11.840Z,4.43
2023-03-01T10:02:51.128Z,4.42
2023-03-01T10:05:34.169Z,4.42
2023-03-01T10:08:30.493Z,4.40
2023-03-01T10:10:59.777Z,4.45
2023-03-01T10:13:43.665Z,4.50
2023-03-01T10:16:17.918Z,4.52
2023-03-01T10:18:49.001Z,4.54
2023-03-01T10:21:20.212Z,4.55
2023-03-01T10:23:52.738Z,4.61
2023-03-01T10:26:53.017Z,4.69
2023-03-01T10:29:27.307Z,4.73
2023-03-01T10:31:55.672Z,4.66
2023-03-01T10:34:33.006Z,4.46
2023-03-01T10:37:19.271Z,4.34
2023-03-01T10:40:09.157Z,4.41
2023-03-01T10:42:50.250Z,4.53
2023-03-01T10:45:22.105Z,4.65
2023-03-01T10:48:30.030Z,4.82
2023-03-01T10:51:01.172Z,4.94
2023-03-01T10:53:37.167Z,5.02
2023-03-01T10:56:05.209Z,5.07
2023-03-01T10:58:35.812Z,5.11
2023-03-01T11:01:24.733Z,5.19
2023-03-01T11:04:11.287Z,5.30
2023-03-01T11:06:42.123Z,5.40
2023-03-01T11:09:20.907Z,5.45
2023-03-01T11:12:01.033Z,5.53
2023-03-01T11:14:36.034Z,5.56
2023-03-01T11:17:26.726Z,5.57
2023-03-01T11:20:10.474Z,5.59
2023-03-01T11:22:46.636Z,5.65
2023-03-01T11:25:16.155Z,5.64
2023-03-01T11:27:46.696Z,5.68
2023-03-01T11:30:27.072Z,5.75
2023-03-01T11:33:29.232Z,5.78
2023-03-01T11:36:04.228Z,5.79
2023-03-01T11:38:36.404Z,5.84
2023-03-01T11:41:23.503Z,5.92
2023-03-01T11:43:59.856Z,6.02
2023-03-01T11:46:30.599Z,6.08
2023-03-01T11:49:36.360Z,6.13
2023-03-01T11:52:20.423Z,6.23
2023-03-01T11:54:48.238Z,6.28
2023-03-01T11:58:02.851Z,6.28
2023-03-01T12:01:05.836Z,6.24
2023-03-01T12:03:59.985Z,6.23
2023-03-01T12:06:46.345Z,6.28
2023-03-01T12:10:00.269Z,6.40
2023-03-01T12:12:40.808Z,6.47
2023-03-01T12:15:33.074Z,6.51
2023-03-01T12:18:06.994Z,6.56
2023-03-01T12:20:52.607Z,6.54
2023-03-01T12:23:47.627Z,6.54
2023-03-01T12:26:57.095Z,6.49
2023-03-01T12:29:35.846Z,6.40
2023-03-01T12:32:12.645Z,6.25
2023-03-01T12:34:59.237Z,6.17
2023-03-01T12:37:43.957Z,6.20
2023-03-01T12:40:35.033Z,6.27
2023-03-01T12:43:23.761Z,6.32
2023-03-01T12:46:03.603Z,6.41
2023-03-01T12:48:51.924Z,6.46
2023-03-01T12:51:26.023Z,6.45
2023-03-01T12:53:57.309Z,6.29
2023-03-01T12:56:29.995Z,6.20
2023-03-01T12:59:18.460Z,6.21
2023-03-01T13:01:55.491Z,6.25
2023-03-01T13:04:37.586Z,6.28
2023-03-01T13:07:20.148Z,6.29
2023-03-01T13:10:42.096Z,6.32
2023-03-01T13:13:14.301Z,6.28
2023-03-01T13:15:42.350Z,6.29
2023-03-01T13:18:12.980Z,6.28
2023-03-01T13:20:44.045Z,6.24
2023-03-01T13:23:30.856Z,6.25
2023-03-01T13:26:04.778Z,6.36
2023-03-01T13:28:32.690Z,6.44
2023-03-01T13:31:02.550Z,6.49
2023-03-01T13:33:30.411Z,6.49
2023-03-01T13:35:59.520Z,6.47
2023-03-01T13:39:01.044Z,6.47
2023-03-01T13:41:44.101Z,6.40
2023-03-01T13:44:27.953Z,6.33
2023-03-01T13:47:18.391Z,6.36
2023-03-01T13:49:58.257Z,6.44
2023-03-01T13:52:38.958Z,6.50
2023-03-01T13:55:17.872Z,6.49
2023-03-01T13:57:54.670Z,6.47
2023-03-01T14:00:40.529Z,6.50
2023-03-01T14:03:17.402Z,6.54
2023-03-01T14:06:17.321Z,6.55
2023-03-01T14:08:50.390Z,6.52
2023-03-01T14:11:50.140Z,6.51
2023-03-01T14:14:27.089Z,6.51
2023-03-01T14:17:14.127Z,6.55
2023-03-01T14:19:46.275Z,6.58
2023-03-01T14:22:24.721Z,6.64
2023-03-01T14:24:56.567Z,6.67
2023-03-01T14:27:33.745Z,6.68
2023-03-01T14:30:05.388Z,6.72
2023-03-01T14:32:33.656Z,6.75
2023-03-01T14:35:01.920Z,6.76
2023-03-01T14:37:35.096Z,6.76
2023-03-01T14:40:05.434Z,6.75
2023-03-01T14:42:37.213Z,6.73
2023-03-01T14:45:08.139Z,6.65
2023-03-01T14:47:41.214Z,6.59
2023-03-01T14:50:16.867Z,6.54
2023-03-01T14:52:48.358Z,6.43
2023-03-01T14:55:20.060Z,6.35
2023-03-01T14:57:50.491Z,6.29
2023-03-01T15:00:25.397Z,6.22
2023-03-01T15:02:55.028Z,6.18
2023-03-01T15:05:34.967Z,6.15
2023-03-01T15:08:05.644Z,6.09
2023-03-01T15:10:37.499Z,6.03
2023-03-01T15:13:25.433Z,5.98
2023-03-01T15:16:08.045Z,5.95
2023-03-01T15:18:37.660Z,5.93
2023-03-01T15:21:24.335Z,5.90
2023-03-01T15:24:28.655Z,5.86
2023-03-01T15:27:02.857Z,5.80
2023-03-01T15:29:34.408Z,5.76
2023-03-01T15:32:06.931Z,5.71
2023-03-01T15:34:38.690Z,5.65
2023-03-01T15:37:28.532Z,5.58
2023-03-01T15:39:58.691Z,5.54
2023-03-01T15:42:26.497Z,5.49
2023-03-01T15:45:13.336Z,5.42
2023-03-01T15:47:43.028Z,5.34
2023-03-01T15:50:21.760Z,5.31
2023-03-01T15:52:50.447Z,5.27
2023-03-01T15:55:26.148Z,5.20
2023-03-01T15:58:25.602Z,5.15
2023-03-01T16:01:01.080Z,5.09
2023-03-01T16:03:30.107Z,5.04
2023-03-01T16:05:58.166Z,5.00
2023-03-01T16:08:26.315Z,4.94
2023-03-01T16:10:55.610Z,4.86
2023-03-01T16:13:23.738Z,4.80
2023-03-01T16:15:52.506Z,4.76
2023-03-01T16:18:20.817Z,4.70
2023-03-01T16:20:49.342Z,4.62
2023-03-01T16:23:17.335Z,4.54
2023-03-01T16:25:45.269Z,4.46
2023-03-01T16:28:13.195Z,4.38
2023-03-01T16:30:41.545Z,4.29
2023-03-01T16:33:25.185Z,4.20
2023-03-01T16:35:56.288Z,4.11
2023-03-01T16:38:24.637Z,4.01
2023-03-01T16:40:53.046Z,3.93
2023-03-01T16:43:21.343Z,3.85
2023-03-01T16:45:49.295Z,3.77
2023-03-01T16:48:17.373Z,3.69
2023-03-01T16:50:45.486Z,3.61
2023-03-01T16:53:13.450Z,3.53
2023-03-01T16:55:46.449Z,3.46
2023-03-01T16:58:16.475Z,3.38
2023-03-01T17:00:44.496Z,3.28
2023-03-01T17:03:14.891Z,3.19
2023-03-01T17:05:43.147Z,3.11
2023-03-01T17:08:11.145Z,3.05
2023-03-01T17:10:39.275Z,2.99
2023-03-01T17:13:07.602Z,2.94
2023-03-01T17:15:36.142Z,2.89
2023-03-01T17:18:04.520Z,2.83
2023-03-01T17:20:32.460Z,2.78
2023-03-01T17:23:00.571Z,2.73
2023-03-01T17:25:29.362Z,2.66
2023-03-01T17:27:58.332Z,2.59
2023-03-01T17:30:26.551Z,2.55
2023-03-01T17:32:56.360Z,2.50
2023-03-01T17:35:24.576Z,2.46
2023-03-01T17:37:52.599Z,2.43
2023-03-01T17:40:20.650Z,2.39
2023-03-01T17:42:48.568Z,2.35
2023-03-01T17:45:16.680Z,2.30
2023-03-01T17:47:44.727Z,2.27
2023-03-01T17:50:12.680Z,2.25
2023-03-01T17:52:41.609Z,2.22
2023-03-01T17:55:10.630Z,2.18
2023-03-01T17:57:40.636Z,2.16
2023-03-01T18:00:16.173Z,2.13
2023-03-01T18:02:48.645Z,2.10
2023-03-01T18:05:17.453Z,2.07
2023-03-01T18:07:45.696Z,2.04
2023-03-01T18:10:14.621Z,1.99
2023-03-01T18:12:43.450Z,1.91
2023-03-01T18:15:12.608Z,1.83
2023-03-01T18:17:40.980Z,1.79
2023-03-01T18:20:10.606Z,1.76
2023-03-01T18:22:40.013Z,1.73
2023-03-01T18:25:09.242Z,1.71
2023-03-01T18:27:38.707Z,1.68
2023-03-01T18:30:08.958Z,1.65
2023-03-01T18:32:39.680Z,1.61
2023-03-01T18:35:08.468Z,1.56
2023-03-01T18:37:36.656Z,1.51
2023-03-01T18:40:08.845Z,1.46
2023-03-01T18:42:37.565Z,1.40
2023-03-01T18:45:06.791Z,1.34
2023-03-01T18:47:37.662Z,1.29
2023-03-01T18:50:08.976Z,1.25
2023-03-01T18:52:37.249Z,1.20
2023-03-01T18:55:06.595Z,1.14
2023-03-01T18:57:34.713Z,1.09
2023-03-01T19:00:04.740Z,1.06
2023-03-01T19:02:33.435Z,1.03
2023-03-01T19:05:01.556Z,1.01
2023-03-01T19:07:32.682Z,0.97
2023-03-01T19:10:00.909Z,0.93
2023-03-01T19:12:35.496Z,0.91
2023-03-01T19:15:05.390Z,0.89
2023-03-01T19:17:35.803Z,0.88
2023-03-01T19:20:05.233Z,0.87
2023-03-01T19:22:34.320Z,0.83
2023-03-01T19:25:03.923Z,0.80
2023-03-01T19:27:32.479Z,0.81
2023-03-01T19:30:03.503Z,0.82
2023-03-01T19:32:33.365Z,0.80
2023-03-01T19:35:01.905Z,0.79
2023-03-01T19:37:30.591Z,0.75
2023-03-01T19:40:01.325Z,0.70
2023-03-01T19:42:29.484Z,0.65
2023-03-01T19:44:57.851Z,0.60
2023-03-01T19:47:26.568Z,0.56
2023-03-01T19:49:54.595Z,0.52
2023-03-01T19:52:22.902Z,0.48
2023-03-01T19:54:53.790Z,0.44
2023-03-01T19:57:24.054Z,0.39
2023-03-01T19:59:52.540Z,0.35
2023-03-01T20:02:21.405Z,0.30
2023-03-01T20:04:50.320Z,0.26
2023-03-01T20:07:18.629Z,0.21
2023-03-01T20:09:46.643Z,0.17
2023-03-01T20:12:14.885Z,0.10
2023-03-01T20:14:55.410Z,0.03
2023-03-01T20:17:24.059Z,-0.01
2023-03-01T20:19:52.195Z,-0.02
2023-03-01T20:22:20.456Z,-0.01
2023-03-01T20:24:48.913Z,-0.01
2023-03-01T20:27:17.131Z,-0.02
2023-03-01T20:29:46.057Z,-0.03
2023-03-01T20:32:14.245Z,-0.08
2023-03-01T20:34:44.665Z,-0.09
2023-03-01T20:37:16.868Z,-0.11
2023-03-01T20:39:45.744Z,-0.18
2023-03-01T20:42:16.445Z,-0.24
2023-03-01T20:44:45.892Z,-0.26
2023-03-01T20:47:15.578Z,-0.26
2023-03-01T20:49:43.694Z,-0.26
2023-03-01T20:52:11.723Z,-0.26
2023-03-01T20:54:40.888Z,-0.26
2023-03-01T20:57:09.175Z,-0.27
2023-03-01T20:59:37.985Z,-0.27
2023-03-01T21:02:06.361Z,-0.30
2023-03-01T21:04:37.084Z,-0.33
2023-03-01T21:07:05.186Z,-0.36
2023-03-01T21:09:34.920Z,-0.40
2023-03-01T21:12:04.367Z,-0.48
2023-03-01T21:14:42.403Z,-0.50
2023-03-01T21:17:12.914Z,-0.51
2023-03-01T21:19:45.413Z,-0.52
2023-03-01T21:22:15.721Z,-0.54
2023-03-01T21:24:45.304Z,-0.58
2023-03-01T21:27:15.586Z,-0.60
2023-03-01T21:29:46.057Z,-0.62
2023-03-01T21:32:14.866Z,-0.65
2023-03-01T21:34:45.528Z,-0.68
2023-03-01T21:37:13.443Z,-0.70
2023-03-01T21:39:41.739Z,-0.71
2023-03-01T21:42:09.616Z,-0.74
2023-03-01T21:44:37.864Z,-0.76
2023-03-01T21:47:07.129Z,-0.78
2023-03-01T21:49:38.375Z,-0.80
2023-03-01T21:52:06.413Z,-0.81
2023-03-01T21:54:35.071Z,-0.81
2023-03-01T21:57:03.210Z,-0.82
2023-03-01T21:59:31.330Z,-0.83
2023-03-01T22:01:59.323Z,-0.82
2023-03-01T22:04:27.339Z,-0.81
2023-03-01T22:06:55.629Z,-0.81
2023-03-01T22:09:24.589Z,-0.82
2023-03-01T22:11:58.418Z,-0.83
2023-03-01T22:14:26.524Z,-0.85
2023-03-01T22:16:54.904Z,-0.86
2023-03-01T22:19:23.386Z,-0.89
2023-03-01T22:21:52.669Z,-0.92
2023-03-01T22:24:24.856Z,-0.95
2023-03-01T22:26:54.864Z,-0.98
2023-03-01T22:29:26.225Z,-1.00
2023-03-01T22:31:55.672Z,-1.02
2023-03-01T22:34:24.619Z,-1.03
2023-03-01T22:36:52.556Z,-1.03
2023-03-01T22:39:21.705Z,-1.05
2023-03-01T22:41:50.338Z,-1.07
2023-03-01T22:44:22.210Z,-1.09
2023-03-01T22:46:50.842Z,-1.12
2023-03-01T22:49:20.068Z,-1.15
2023-03-01T22:51:48.860Z,-1.19
2023-03-01T22:54:18.712Z,-1.21
2023-03-01T22:56:47.048Z,-1.25
2023-03-01T22:59:18.994Z,-1.26
2023-03-01T23:01:48.035Z,-1.27
2023-03-01T23:04:17.677Z,-1.30
2023-03-01T23:06:55.822Z,-1.31
2023-03-01T23:09:32.885Z,-1.31
2023-03-01T23:12:02.586Z,-1.32
2023-03-01T23:14:32.245Z,-1.32
2023-03-01T23:17:01.722Z,-1.32
2023-03-01T23:19:30.710Z,-1.33
2023-03-01T23:21:58.984Z,-1.36
2023-03-01T23:24:31.375Z,-1.41
2023-03-01T23:27:02.015Z,-1.48
2023-03-01T23:29:31.227Z,-1.57
2023-03-01T23:32:00.436Z,-1.62
2023-03-01T23:34:28.470Z,-1.66
2023-03-01T23:36:58.075Z,-1.66
2023-03-01T23:39:26.397Z,-1.65
2023-03-01T23:41:54.440Z,-1.67
2023-03-01T23:44:22.972Z,-1.64
2023-03-01T23:46:51.431Z,-1.61
2023-03-01T23:49:22.133Z,-1.63
2023-03-01T23:51:50.568Z,-1.66
2023-03-01T23:54:22.272Z,-1.70
2023-03-01T23:56:50.632Z,-1.72
2023-03-01T23:59:23.362Z,-1.73
